Clinton, Utah
Current Conditions -  °F | °C
As of 7:58 PM on Thursday 27 Nov 2014 (Local Time) from KHIF Reporting Station
Scattered Clouds Scattered Clouds  
Wind Chill: 40°   Ceiling: Unl
Heat Index: 46°   Visibility: 10mi
Dew Point: 25°   Wind: 12mph
Humidity: 44%   Direction: 160°SSE
Pressure: 30.15"   Gusts: NA
Location:  41.123°N, 112.063°W
Report Text: KHIF 280258Z AUTO 16010KT 10SM FEW160 SCT200 08/M04 A3015 RMK AO2 SLP201 T00751040 57013
Loading
Personal Weather Stations






























Interactive Weather Map New forecast layout! Learn more

10-Day Weather Forecast

Advertisements
Track Severe Weather on mobile